sensor_id;sensor_type;location;lat;lon;timestamp;pressure;altitude;pressure_sealevel;temperature;humidity
18813;BME280;9534;51.140;6.296;2023-07-29T00:03:36;102240.75;;;18.39;100.00
18813;BME280;9534;51.140;6.296;2023-07-29T00:07:39;102227.97;;;18.38;100.00
18813;BME280;9534;51.140;6.296;2023-07-29T00:11:42;102240.69;;;18.45;100.00
18813;BME280;9534;51.140;6.296;2023-07-29T00:15:45;102222.59;;;18.43;100.00
18813;BME280;9534;51.140;6.296;2023-07-29T00:19:49;102216.38;;;18.47;100.00
18813;BME280;9534;51.140;6.296;2023-07-29T00:23:52;102235.13;;;18.52;100.00
18813;BME280;9534;51.140;6.296;2023-07-29T00:27:55;102217.25;;;18.48;100.00
18813;BME280;9534;51.140;6.296;2023-07-29T00:32:00;102221.09;;;18.47;100.00
18813;BME280;9534;51.140;6.296;2023-07-29T00:36:04;102211.28;;;18.44;100.00
18813;BME280;9534;51.140;6.296;2023-07-29T00:40:09;102205.97;;;18.43;100.00
18813;BME280;9534;51.140;6.296;2023-07-29T00:44:15;102204.44;;;18.47;100.00
18813;BME280;9534;51.140;6.296;2023-07-29T00:48:18;102204.44;;;18.47;100.00
18813;BME280;9534;51.140;6.296;2023-07-29T00:52:23;102200.59;;;18.48;100.00
18813;BME280;9534;51.140;6.296;2023-07-29T00:56:28;102201.44;;;18.48;100.00
18813;BME280;9534;51.140;6.296;2023-07-29T01:00:31;102186.91;;;18.53;100.00
18813;BME280;9534;51.140;6.296;2023-07-29T01:04:37;102180.69;;;18.57;100.00
18813;BME280;9534;51.140;6.296;2023-07-29T01:08:46;102180.47;;;18.59;100.00
18813;BME280;9534;51.140;6.296;2023-07-29T01:12:51;102179.16;;;18.61;100.00
18813;BME280;9534;51.140;6.296;2023-07-29T01:16:59;102177.69;;;18.59;100.00
18813;BME280;9534;51.140;6.296;2023-07-29T01:21:03;102161.69;;;18.61;100.00
18813;BME280;9534;51.140;6.296;2023-07-29T01:25:08;102174.84;;;18.65;100.00
18813;BME280;9534;51.140;6.296;2023-07-29T01:29:11;102174.03;;;18.64;100.00
18813;BME280;9534;51.140;6.296;2023-07-29T01:33:16;102156.13;;;18.61;100.00
18813;BME280;9534;51.140;6.296;2023-07-29T01:37:22;102147.66;;;18.56;100.00
18813;BME280;9534;51.140;6.296;2023-07-29T01:41:28;102139.53;;;18.54;100.00
18813;BME280;9534;51.140;6.296;2023-07-29T01:45:31;102148.09;;;18.53;100.00
18813;BME280;9534;51.140;6.296;2023-07-29T01:49:37;102152.75;;;18.59;100.00
18813;BME280;9534;51.140;6.296;2023-07-29T01:53:40;102163.41;;;18.55;100.00
18813;BME280;9534;51.140;6.296;2023-07-29T01:57:45;102168.13;;;18.55;100.00
18813;BME280;9534;51.140;6.296;2023-07-29T02:01:48;102164.28;;;18.56;100.00
18813;BME280;9534;51.140;6.296;2023-07-29T02:05:51;102179.41;;;18.60;100.00
18813;BME280;9534;51.140;6.296;2023-07-29T02:09:54;102179.41;;;18.60;100.00
18813;BME280;9534;51.140;6.296;2023-07-29T02:13:59;102178.94;;;18.63;100.00
18813;BME280;9534;51.140;6.296;2023-07-29T02:18:02;102179.56;;;18.64;100.00
18813;BME280;9534;51.140;6.296;2023-07-29T02:22:05;102184.03;;;18.65;100.00
18813;BME280;9534;51.140;6.296;2023-07-29T02:26:08;102184.22;;;18.70;100.00
18813;BME280;9534;51.140;6.296;2023-07-29T02:30:14;102187.44;;;18.67;100.00
18813;BME280;9534;51.140;6.296;2023-07-29T02:34:17;102180.81;;;18.68;100.00
18813;BME280;9534;51.140;6.296;2023-07-29T02:38:20;102189.97;;;18.69;100.00
18813;BME280;9534;51.140;6.296;2023-07-29T02:42:23;102186.13;;;18.70;100.00
18813;BME280;9534;51.140;6.296;2023-07-29T02:46:28;102180.38;;;18.71;100.00
18813;BME280;9534;51.140;6.296;2023-07-29T02:50:31;102185.47;;;18.74;100.00
18813;BME280;9534;51.140;6.296;2023-07-29T02:54:34;102170.53;;;18.75;100.00
18813;BME280;9534;51.140;6.296;2023-07-29T02:58:37;102169.28;;;18.71;100.00
18813;BME280;9534;51.140;6.296;2023-07-29T03:02:43;102178.66;;;18.70;100.00
18813;BME280;9534;51.140;6.296;2023-07-29T03:06:46;102177.41;;;18.66;100.00
18813;BME280;9534;51.140;6.296;2023-07-29T03:10:50;102178.31;;;18.61;100.00
18813;BME280;9534;51.140;6.296;2023-07-29T03:14:53;102169.84;;;18.56;100.00
18813;BME280;9534;51.140;6.296;2023-07-29T03:18:59;102173.50;;;18.50;100.00
18813;BME280;9534;51.140;6.296;2023-07-29T03:23:02;102173.78;;;18.42;100.00
18813;BME280;9534;51.140;6.296;2023-07-29T03:27:05;102181.50;;;18.33;100.00
18813;BME280;9534;51.140;6.296;2023-07-29T03:31:08;102184.47;;;18.32;100.00
18813;BME280;9534;51.140;6.296;2023-07-29T03:35:13;102176.41;;;18.24;100.00
18813;BME280;9534;51.140;6.296;2023-07-29T03:39:16;102171.31;;;18.21;100.00
18813;BME280;9534;51.140;6.296;2023-07-29T03:43:19;102183.03;;;18.23;100.00
18813;BME280;9534;51.140;6.296;2023-07-29T03:47:22;102190.97;;;18.19;100.00
18813;BME280;9534;51.140;6.296;2023-07-29T03:51:28;102162.19;;;18.14;100.00
18813;BME280;9534;51.140;6.296;2023-07-29T03:55:31;102160.31;;;18.08;100.00
18813;BME280;9534;51.140;6.296;2023-07-29T03:59:34;102181.22;;;18.04;100.00
18813;BME280;9534;51.140;6.296;2023-07-29T04:03:37;102168.47;;;17.96;100.00
18813;BME280;9534;51.140;6.296;2023-07-29T04:07:42;102172.75;;;17.92;100.00
18813;BME280;9534;51.140;6.296;2023-07-29T04:11:45;102180.88;;;17.87;100.00
18813;BME280;9534;51.140;6.296;2023-07-29T04:15:48;102174.53;;;17.80;100.00
18813;BME280;9534;51.140;6.296;2023-07-29T04:19:51;102182.22;;;17.78;100.00
18813;BME280;9534;51.140;6.296;2023-07-29T04:23:58;102163.50;;;17.74;100.00
18813;BME280;9534;51.140;6.296;2023-07-29T04:28:02;102152.44;;;17.67;100.00
18813;BME280;9534;51.140;6.296;2023-07-29T04:32:07;102155.44;;;17.66;100.00
18813;BME280;9534;51.140;6.296;2023-07-29T04:36:10;102154.16;;;17.62;100.00
18813;BME280;9534;51.140;6.296;2023-07-29T04:40:14;102142.66;;;17.58;100.00
18813;BME280;9534;51.140;6.296;2023-07-29T04:44:18;102120.13;;;17.55;100.00
18813;BME280;9534;51.140;6.296;2023-07-29T04:48:20;102115.91;;;17.46;100.00
18813;BME280;9534;51.140;6.296;2023-07-29T04:52:24;102129.97;;;17.44;100.00
18813;BME280;9534;51.140;6.296;2023-07-29T04:56:28;102136.13;;;17.40;100.00
18813;BME280;9534;51.140;6.296;2023-07-29T05:00:31;102157.19;;;17.41;100.00
18813;BME280;9534;51.140;6.296;2023-07-29T05:04:35;102172.34;;;17.45;100.00
18813;BME280;9534;51.140;6.296;2023-07-29T05:08:38;102193.41;;;17.46;100.00
18813;BME280;9534;51.140;6.296;2023-07-29T05:12:43;102210.03;;;17.46;100.00
18813;BME280;9534;51.140;6.296;2023-07-29T05:16:46;102190.00;;;17.44;100.00
18813;BME280;9534;51.140;6.296;2023-07-29T05:20:49;102170.88;;;17.42;100.00
18813;BME280;9534;51.140;6.296;2023-07-29T05:24:53;102195.31;;;17.39;100.00
18813;BME280;9534;51.140;6.296;2023-07-29T05:28:57;102204.03;;;17.36;100.00
18813;BME280;9534;51.140;6.296;2023-07-29T05:33:00;102216.38;;;17.40;100.00
18813;BME280;9534;51.140;6.296;2023-07-29T05:37:04;102236.00;;;17.45;100.00
18813;BME280;9534;51.140;6.296;2023-07-29T05:41:07;102256.44;;;17.50;100.00
18813;BME280;9534;51.140;6.296;2023-07-29T05:45:12;102280.69;;;17.55;100.00
18813;BME280;9534;51.140;6.296;2023-07-29T05:49:15;102294.94;;;17.58;100.00
18813;BME280;9534;51.140;6.296;2023-07-29T05:53:19;102303.69;;;17.55;100.00
18813;BME280;9534;51.140;6.296;2023-07-29T05:57:22;102299.66;;;17.58;100.00
18813;BME280;9534;51.140;6.296;2023-07-29T06:01:26;102286.22;;;17.61;100.00
18813;BME280;9534;51.140;6.296;2023-07-29T06:05:30;102282.38;;;17.69;100.00
18813;BME280;9534;51.140;6.296;2023-07-29T06:09:32;102288.97;;;17.74;100.00
18813;BME280;9534;51.140;6.296;2023-07-29T06:13:36;102285.13;;;17.82;100.00
18813;BME280;9534;51.140;6.296;2023-07-29T06:17:40;102288.28;;;17.92;100.00
18813;BME280;9534;51.140;6.296;2023-07-29T06:21:43;102292.44;;;18.20;100.00
18813;BME280;9534;51.140;6.296;2023-07-29T06:25:46;102304.09;;;18.29;100.00
18813;BME280;9534;51.140;6.296;2023-07-29T06:29:49;102335.66;;;18.41;100.00
18813;BME280;9534;51.140;6.296;2023-07-29T06:33:54;102363.50;;;18.59;100.00
18813;BME280;9534;51.140;6.296;2023-07-29T06:38:00;102386.13;;;18.56;100.00
18813;BME280;9534;51.140;6.296;2023-07-29T06:42:03;102437.31;;;18.60;100.00
18813;BME280;9534;51.140;6.296;2023-07-29T06:46:07;102497.50;;;18.53;100.00
18813;BME280;9534;51.140;6.296;2023-07-29T06:50:18;102545.25;;;18.67;100.00
18813;BME280;9534;51.140;6.296;2023-07-29T06:54:23;102587.91;;;18.86;100.00
18813;BME280;9534;51.140;6.296;2023-07-29T06:58:26;102623.31;;;18.84;100.00
18813;BME280;9534;51.140;6.296;2023-07-29T07:02:29;102673.69;;;18.87;100.00
18813;BME280;9534;51.140;6.296;2023-07-29T07:06:34;102693.75;;;18.89;100.00
18813;BME280;9534;51.140;6.296;2023-07-29T07:10:39;102768.03;;;19.13;100.00
18813;BME280;9534;51.140;6.296;2023-07-29T07:14:42;102903.50;;;19.37;100.00
18813;BME280;9534;51.140;6.296;2023-07-29T07:18:45;102989.28;;;19.19;100.00
18813;BME280;9534;51.140;6.296;2023-07-29T07:22:49;103001.31;;;19.33;100.00
18813;BME280;9534;51.140;6.296;2023-07-29T07:26:52;102952.75;;;19.09;100.00
18813;BME280;9534;51.140;6.296;2023-07-29T07:30:55;102932.66;;;19.07;100.00
18813;BME280;9534;51.140;6.296;2023-07-29T07:34:58;102944.50;;;19.35;100.00
18813;BME280;9534;51.140;6.296;2023-07-29T07:39:03;102880.84;;;19.40;100.00
18813;BME280;9534;51.140;6.296;2023-07-29T07:43:06;102750.03;;;19.61;100.00
18813;BME280;9534;51.140;6.296;2023-07-29T07:47:09;102545.78;;;19.83;100.00
18813;BME280;9534;51.140;6.296;2023-07-29T07:51:12;102299.78;;;19.81;100.00
18813;BME280;9534;51.140;6.296;2023-07-29T07:55:16;101916.94;;;19.94;100.00
18813;BME280;9534;51.140;6.296;2023-07-29T07:59:19;101461.63;;;20.02;100.00
18813;BME280;9534;51.140;6.296;2023-07-29T08:03:22;101114.41;;;20.39;100.00
18813;BME280;9534;51.140;6.296;2023-07-29T08:07:26;100962.69;;;20.53;100.00
18813;BME280;9534;51.140;6.296;2023-07-29T08:11:30;100877.09;;;21.16;100.00
18813;BME280;9534;51.140;6.296;2023-07-29T08:15:33;100630.19;;;21.12;100.00
18813;BME280;9534;51.140;6.296;2023-07-29T08:19:36;100607.38;;;21.19;100.00
18813;BME280;9534;51.140;6.296;2023-07-29T08:23:39;100553.38;;;21.16;100.00
18813;BME280;9534;51.140;6.296;2023-07-29T08:27:44;100315.50;;;22.42;100.00
18813;BME280;9534;51.140;6.296;2023-07-29T08:31:47;100043.66;;;22.89;100.00
18813;BME280;9534;51.140;6.296;2023-07-29T08:35:50;99937.28;;;22.27;100.00
18813;BME280;9534;51.140;6.296;2023-07-29T08:39:53;99953.91;;;22.00;100.00
18813;BME280;9534;51.140;6.296;2023-07-29T08:43:59;99947.09;;;21.69;100.00
18813;BME280;9534;51.140;6.296;2023-07-29T08:48:07;99955.44;;;21.88;100.00
18813;BME280;9534;51.140;6.296;2023-07-29T08:52:11;99965.81;;;20.89;100.00
18813;BME280;9534;51.140;6.296;2023-07-29T08:56:15;100002.75;;;20.61;100.00
18813;BME280;9534;51.140;6.296;2023-07-29T09:00:19;99999.41;;;20.97;100.00
18813;BME280;9534;51.140;6.296;2023-07-29T09:04:23;99974.56;;;21.29;100.00
18813;BME280;9534;51.140;6.296;2023-07-29T09:08:27;99949.91;;;21.64;100.00
18813;BME280;9534;51.140;6.296;2023-07-29T09:12:30;99940.63;;;21.92;100.00
18813;BME280;9534;51.140;6.296;2023-07-29T09:16:35;99898.88;;;22.24;100.00
18813;BME280;9534;51.140;6.296;2023-07-29T09:20:39;99888.88;;;22.55;100.00
18813;BME280;9534;51.140;6.296;2023-07-29T09:24:42;99874.69;;;22.97;100.00
18813;BME280;9534;51.140;6.296;2023-07-29T09:28:45;99860.31;;;22.90;100.00
18813;BME280;9534;51.140;6.296;2023-07-29T09:32:56;99854.72;;;22.63;100.00
18813;BME280;9534;51.140;6.296;2023-07-29T09:36:59;99849.13;;;22.76;100.00
18813;BME280;9534;51.140;6.296;2023-07-29T09:41:03;99854.69;;;22.49;100.00
18813;BME280;9534;51.140;6.296;2023-07-29T09:45:06;99858.19;;;22.23;100.00
18813;BME280;9534;51.140;6.296;2023-07-29T09:49:10;99860.78;;;22.51;100.00
18813;BME280;9534;51.140;6.296;2023-07-29T09:53:14;99853.16;;;22.57;100.00
18813;BME280;9534;51.140;6.296;2023-07-29T09:57:18;99827.88;;;23.70;100.00
18813;BME280;9534;51.140;6.296;2023-07-29T10:01:21;99815.56;;;24.58;100.00
18813;BME280;9534;51.140;6.296;2023-07-29T10:05:26;99831.44;;;24.49;100.00
18813;BME280;9534;51.140;6.296;2023-07-29T10:09:29;99828.66;;;23.83;100.00
18813;BME280;9534;51.140;6.296;2023-07-29T10:13:33;99822.88;;;23.18;100.00
18813;BME280;9534;51.140;6.296;2023-07-29T10:17:37;99830.31;;;23.36;100.00
18813;BME280;9534;51.140;6.296;2023-07-29T10:21:42;99826.91;;;23.74;100.00
18813;BME280;9534;51.140;6.296;2023-07-29T10:25:49;99817.69;;;24.92;100.00
18813;BME280;9534;51.140;6.296;2023-07-29T10:29:53;99812.41;;;24.07;100.00
18813;BME280;9534;51.140;6.296;2023-07-29T10:33:59;99814.50;;;23.18;100.00
18813;BME280;9534;51.140;6.296;2023-07-29T10:38:05;99817.63;;;22.76;100.00
18813;BME280;9534;51.140;6.296;2023-07-29T10:42:10;99825.91;;;22.04;100.00
18813;BME280;9534;51.140;6.296;2023-07-29T10:46:17;99842.91;;;22.21;100.00
18813;BME280;9534;51.140;6.296;2023-07-29T10:50:20;99841.22;;;22.06;100.00
18813;BME280;9534;51.140;6.296;2023-07-29T10:54:26;99836.09;;;22.13;100.00
18813;BME280;9534;51.140;6.296;2023-07-29T10:58:31;99826.81;;;22.31;100.00
18813;BME280;9534;51.140;6.296;2023-07-29T11:02:34;99813.50;;;22.87;100.00
18813;BME280;9534;51.140;6.296;2023-07-29T11:11:02;99818.06;;;23.23;100.00
18813;BME280;9534;51.140;6.296;2023-07-29T11:15:11;99822.47;;;22.25;100.00
18813;BME280;9534;51.140;6.296;2023-07-29T11:19:15;99832.41;;;21.99;100.00
18813;BME280;9534;51.140;6.296;2023-07-29T11:23:28;99833.53;;;21.98;100.00
18813;BME280;9534;51.140;6.296;2023-07-29T11:27:33;99818.78;;;24.21;100.00
18813;BME280;9534;51.140;6.296;2023-07-29T11:31:39;99803.75;;;24.39;100.00
18813;BME280;9534;51.140;6.296;2023-07-29T11:35:43;99808.97;;;24.93;100.00
18813;BME280;9534;51.140;6.296;2023-07-29T11:39:46;99787.22;;;24.29;100.00
18813;BME280;9534;51.140;6.296;2023-07-29T11:43:50;99786.41;;;26.05;100.00
18813;BME280;9534;51.140;6.296;2023-07-29T11:47:53;99797.59;;;25.37;100.00
18813;BME280;9534;51.140;6.296;2023-07-29T11:51:57;99781.47;;;24.56;100.00
18813;BME280;9534;51.140;6.296;2023-07-29T11:56:00;99786.59;;;23.67;100.00
18813;BME280;9534;51.140;6.296;2023-07-29T12:00:05;99772.94;;;23.30;100.00
18813;BME280;9534;51.140;6.296;2023-07-29T12:04:12;99765.28;;;24.84;100.00
18813;BME280;9534;51.140;6.296;2023-07-29T12:08:15;99767.50;;;25.12;100.00
18813;BME280;9534;51.140;6.296;2023-07-29T12:12:19;99775.09;;;23.68;100.00
18813;BME280;9534;51.140;6.296;2023-07-29T12:16:23;99766.72;;;23.33;100.00
18813;BME280;9534;51.140;6.296;2023-07-29T12:20:33;99753.56;;;24.12;100.00
18813;BME280;9534;51.140;6.296;2023-07-29T12:24:38;99766.66;;;23.60;100.00
18813;BME280;9534;51.140;6.296;2023-07-29T12:28:44;99766.66;;;23.60;100.00
18813;BME280;9534;51.140;6.296;2023-07-29T12:32:50;99764.78;;;23.20;100.00
18813;BME280;9534;51.140;6.296;2023-07-29T12:36:54;99744.81;;;23.13;100.00
18813;BME280;9534;51.140;6.296;2023-07-29T12:40:57;99754.91;;;22.87;100.00
18813;BME280;9534;51.140;6.296;2023-07-29T12:45:01;99753.56;;;22.98;100.00
18813;BME280;9534;51.140;6.296;2023-07-29T12:49:05;99783.75;;;22.69;100.00
18813;BME280;9534;51.140;6.296;2023-07-29T12:53:09;99795.97;;;22.41;100.00
18813;BME280;9534;51.140;6.296;2023-07-29T12:57:12;99798.63;;;22.78;100.00
18813;BME280;9534;51.140;6.296;2023-07-29T13:01:16;99831.88;;;22.61;100.00
18813;BME280;9534;51.140;6.296;2023-07-29T13:05:23;99839.44;;;22.42;100.00
18813;BME280;9534;51.140;6.296;2023-07-29T13:09:27;99837.94;;;22.18;100.00
18813;BME280;9534;51.140;6.296;2023-07-29T13:13:30;99849.41;;;22.16;100.00
18813;BME280;9534;51.140;6.296;2023-07-29T13:17:34;99852.81;;;22.13;100.00
18813;BME280;9534;51.140;6.296;2023-07-29T13:21:38;99856.59;;;22.36;100.00
18813;BME280;9534;51.140;6.296;2023-07-29T13:25:42;99846.53;;;22.53;100.00
18813;BME280;9534;51.140;6.296;2023-07-29T13:29:45;99862.09;;;21.90;100.00
18813;BME280;9534;51.140;6.296;2023-07-29T13:33:48;99898.06;;;21.26;100.00
18813;BME280;9534;51.140;6.296;2023-07-29T13:37:53;99954.72;;;20.84;100.00
18813;BME280;9534;51.140;6.296;2023-07-29T13:41:56;100049.81;;;20.57;100.00
18813;BME280;9534;51.140;6.296;2023-07-29T13:45:59;100328.41;;;20.54;100.00
18813;BME280;9534;51.140;6.296;2023-07-29T13:50:02;100359.00;;;20.54;100.00
18813;BME280;9534;51.140;6.296;2023-07-29T13:54:07;100364.47;;;20.89;100.00
18813;BME280;9534;51.140;6.296;2023-07-29T13:58:11;100335.88;;;20.69;100.00
18813;BME280;9534;51.140;6.296;2023-07-29T14:02:14;100301.19;;;20.51;100.00
18813;BME280;9534;51.140;6.296;2023-07-29T14:06:17;100292.94;;;20.90;100.00
18813;BME280;9534;51.140;6.296;2023-07-29T14:10:31;100153.03;;;21.27;100.00
18813;BME280;9534;51.140;6.296;2023-07-29T14:14:34;100037.00;;;20.95;100.00
18813;BME280;9534;51.140;6.296;2023-07-29T14:18:37;100039.09;;;21.08;100.00
18813;BME280;9534;51.140;6.296;2023-07-29T14:22:44;100036.06;;;21.32;100.00
18813;BME280;9534;51.140;6.296;2023-07-29T14:26:49;99936.13;;;21.96;100.00
18813;BME280;9534;51.140;6.296;2023-07-29T14:30:52;99919.25;;;22.06;100.00
18813;BME280;9534;51.140;6.296;2023-07-29T14:34:55;99883.19;;;23.46;100.00
18813;BME280;9534;51.140;6.296;2023-07-29T14:38:59;99818.16;;;24.33;100.00
18813;BME280;9534;51.140;6.296;2023-07-29T14:43:04;99829.41;;;25.02;100.00
18813;BME280;9534;51.140;6.296;2023-07-29T14:47:09;99822.81;;;24.98;100.00
18813;BME280;9534;51.140;6.296;2023-07-29T14:51:15;99812.97;;;25.17;100.00
18813;BME280;9534;51.140;6.296;2023-07-29T14:55:18;99818.06;;;25.80;100.00
18813;BME280;9534;51.140;6.296;2023-07-29T14:59:24;99796.22;;;24.48;100.00
18813;BME280;9534;51.140;6.296;2023-07-29T15:03:27;99810.88;;;23.79;100.00
18813;BME280;9534;51.140;6.296;2023-07-29T15:07:30;99804.09;;;25.15;100.00
18813;BME280;9534;51.140;6.296;2023-07-29T15:11:33;99809.97;;;26.37;100.00
18813;BME280;9534;51.140;6.296;2023-07-29T15:15:38;99787.03;;;25.68;100.00
18813;BME280;9534;51.140;6.296;2023-07-29T15:19:42;99797.53;;;25.20;100.00
18813;BME280;9534;51.140;6.296;2023-07-29T15:23:46;99788.69;;;24.88;100.00
18813;BME280;9534;51.140;6.296;2023-07-29T15:27:49;99794.75;;;24.51;100.00
18813;BME280;9534;51.140;6.296;2023-07-29T15:31:53;99798.56;;;23.80;100.00
18813;BME280;9534;51.140;6.296;2023-07-29T15:35:56;99806.22;;;23.13;100.00
18813;BME280;9534;51.140;6.296;2023-07-29T15:40:00;99821.31;;;23.12;100.00
18813;BME280;9534;51.140;6.296;2023-07-29T15:44:04;99826.47;;;23.94;100.00
18813;BME280;9534;51.140;6.296;2023-07-29T15:48:10;99815.84;;;24.04;100.00
18813;BME280;9534;51.140;6.296;2023-07-29T15:52:14;99810.53;;;24.77;100.00
18813;BME280;9534;51.140;6.296;2023-07-29T15:56:17;99793.66;;;26.06;100.00
18813;BME280;9534;51.140;6.296;2023-07-29T16:00:20;99780.47;;;27.06;100.00
18813;BME280;9534;51.140;6.296;2023-07-29T16:04:25;99785.63;;;25.06;100.00
18813;BME280;9534;51.140;6.296;2023-07-29T16:08:28;99781.59;;;24.90;100.00
18813;BME280;9534;51.140;6.296;2023-07-29T16:12:32;99779.81;;;24.94;100.00
18813;BME280;9534;51.140;6.296;2023-07-29T16:16:40;99788.06;;;23.86;100.00
18813;BME280;9534;51.140;6.296;2023-07-29T16:20:45;99811.00;;;22.72;100.00
18813;BME280;9534;51.140;6.296;2023-07-29T16:24:50;99822.56;;;22.52;100.00
18813;BME280;9534;51.140;6.296;2023-07-29T16:28:54;99831.97;;;22.69;100.00
18813;BME280;9534;51.140;6.296;2023-07-29T16:32:57;99819.28;;;23.17;100.00
18813;BME280;9534;51.140;6.296;2023-07-29T16:37:01;99816.31;;;23.63;100.00
18813;BME280;9534;51.140;6.296;2023-07-29T16:41:04;99827.56;;;22.82;100.00
18813;BME280;9534;51.140;6.296;2023-07-29T16:45:27;99830.34;;;23.71;100.00
18813;BME280;9534;51.140;6.296;2023-07-29T16:49:32;99809.22;;;23.78;100.00
18813;BME280;9534;51.140;6.296;2023-07-29T16:53:37;99798.81;;;23.57;100.00
18813;BME280;9534;51.140;6.296;2023-07-29T16:57:41;99806.03;;;23.36;100.00
18813;BME280;9534;51.140;6.296;2023-07-29T17:01:44;99798.41;;;23.28;100.00
18813;BME280;9534;51.140;6.296;2023-07-29T17:05:47;99804.78;;;23.29;100.00
18813;BME280;9534;51.140;6.296;2023-07-29T17:09:54;99821.97;;;22.82;100.00
18813;BME280;9534;51.140;6.296;2023-07-29T17:14:00;99848.41;;;22.71;100.00
18813;BME280;9534;51.140;6.296;2023-07-29T17:18:03;99823.31;;;23.38;100.00
18813;BME280;9534;51.140;6.296;2023-07-29T17:22:07;99809.00;;;23.75;100.00
18813;BME280;9534;51.140;6.296;2023-07-29T17:26:11;99798.91;;;23.66;100.00
18813;BME280;9534;51.140;6.296;2023-07-29T17:30:15;99825.66;;;23.18;100.00
18813;BME280;9534;51.140;6.296;2023-07-29T17:34:20;99854.81;;;22.58;100.00
18813;BME280;9534;51.140;6.296;2023-07-29T17:38:23;99872.63;;;22.25;100.00
18813;BME280;9534;51.140;6.296;2023-07-29T17:42:28;99900.59;;;22.20;100.00
18813;BME280;9534;51.140;6.296;2023-07-29T17:46:31;99912.03;;;22.05;100.00
18813;BME280;9534;51.140;6.296;2023-07-29T17:50:35;99941.09;;;21.99;100.00
18813;BME280;9534;51.140;6.296;2023-07-29T17:54:38;99942.44;;;22.02;100.00
18813;BME280;9534;51.140;6.296;2023-07-29T17:58:44;99949.31;;;22.09;100.00
18813;BME280;9534;51.140;6.296;2023-07-29T18:02:47;99930.13;;;22.58;100.00
18813;BME280;9534;51.140;6.296;2023-07-29T18:06:50;99904.66;;;22.78;100.00
18813;BME280;9534;51.140;6.296;2023-07-29T18:10:54;99898.88;;;22.24;100.00
18813;BME280;9534;51.140;6.296;2023-07-29T18:14:59;99991.56;;;20.71;100.00
18813;BME280;9534;51.140;6.296;2023-07-29T18:19:03;100331.53;;;19.58;100.00
18813;BME280;9534;51.140;6.296;2023-07-29T18:23:09;102315.88;;;19.72;100.00
18813;BME280;9534;51.140;6.296;2023-07-29T18:27:17;102221.81;;;19.76;100.00
18813;BME280;9534;51.140;6.296;2023-07-29T18:31:24;102196.72;;;19.82;100.00
18813;BME280;9534;51.140;6.296;2023-07-29T18:35:28;102173.41;;;19.65;100.00
18813;BME280;9534;51.140;6.296;2023-07-29T18:39:31;102166.09;;;19.53;100.00
18813;BME280;9534;51.140;6.296;2023-07-29T18:43:34;102168.66;;;19.54;100.00
18813;BME280;9534;51.140;6.296;2023-07-29T18:47:38;102165.25;;;19.52;100.00
18813;BME280;9534;51.140;6.296;2023-07-29T18:51:42;102164.25;;;19.47;100.00
18813;BME280;9534;51.140;6.296;2023-07-29T18:55:45;102164.69;;;19.44;100.00
18813;BME280;9534;51.140;6.296;2023-07-29T18:59:50;102159.41;;;19.42;100.00
18813;BME280;9534;51.140;6.296;2023-07-29T19:03:54;102176.84;;;19.49;100.00
18813;BME280;9534;51.140;6.296;2023-07-29T19:07:58;102181.94;;;19.52;100.00
18813;BME280;9534;51.140;6.296;2023-07-29T19:12:01;102190.09;;;19.47;100.00
18813;BME280;9534;51.140;6.296;2023-07-29T19:16:04;102193.34;;;19.44;100.00
18813;BME280;9534;51.140;6.296;2023-07-29T19:20:12;102208.94;;;19.45;100.00
18813;BME280;9534;51.140;6.296;2023-07-29T19:24:18;102219.50;;;19.55;100.00
18813;BME280;9534;51.140;6.296;2023-07-29T19:28:21;102234.75;;;19.46;100.00
18813;BME280;9534;51.140;6.296;2023-07-29T19:32:27;102247.56;;;19.47;100.00
18813;BME280;9534;51.140;6.296;2023-07-29T19:36:32;102266.34;;;19.51;100.00
18813;BME280;9534;51.140;6.296;2023-07-29T19:40:37;102284.75;;;19.46;100.00
18813;BME280;9534;51.140;6.296;2023-07-29T19:44:40;102285.09;;;19.31;100.00
18813;BME280;9534;51.140;6.296;2023-07-29T19:48:43;102283.63;;;19.29;100.00
18813;BME280;9534;51.140;6.296;2023-07-29T19:52:47;102297.75;;;19.27;100.00
18813;BME280;9534;51.140;6.296;2023-07-29T19:56:50;102292.69;;;19.18;100.00
18813;BME280;9534;51.140;6.296;2023-07-29T20:00:53;102285.63;;;19.15;100.00
18813;BME280;9534;51.140;6.296;2023-07-29T20:04:56;102294.03;;;19.09;100.00
18813;BME280;9534;51.140;6.296;2023-07-29T20:09:00;102301.09;;;19.05;100.00
18813;BME280;9534;51.140;6.296;2023-07-29T20:13:04;102296.22;;;19.00;100.00
18813;BME280;9534;51.140;6.296;2023-07-29T20:17:07;102302.56;;;19.07;100.00
18813;BME280;9534;51.140;6.296;2023-07-29T20:21:10;102316.63;;;19.12;100.00
18813;BME280;9534;51.140;6.296;2023-07-29T20:25:16;102312.22;;;19.05;100.00
18813;BME280;9534;51.140;6.296;2023-07-29T20:29:19;102334.06;;;19.19;100.00
18813;BME280;9534;51.140;6.296;2023-07-29T20:33:22;102341.44;;;19.07;100.00
18813;BME280;9534;51.140;6.296;2023-07-29T20:37:25;102348.06;;;19.06;100.00
18813;BME280;9534;51.140;6.296;2023-07-29T20:41:30;102367.75;;;18.98;100.00
18813;BME280;9534;51.140;6.296;2023-07-29T20:45:33;102400.22;;;18.98;100.00
18813;BME280;9534;51.140;6.296;2023-07-29T20:49:37;102442.28;;;18.95;100.00
18813;BME280;9534;51.140;6.296;2023-07-29T20:53:40;102434.22;;;18.80;100.00
18813;BME280;9534;51.140;6.296;2023-07-29T20:57:45;102444.97;;;18.70;100.00
18813;BME280;9534;51.140;6.296;2023-07-29T21:01:48;102430.03;;;18.65;100.00
18813;BME280;9534;51.140;6.296;2023-07-29T21:05:51;102422.81;;;18.58;100.00
18813;BME280;9534;51.140;6.296;2023-07-29T21:09:54;102420.28;;;18.50;100.00
18813;BME280;9534;51.140;6.296;2023-07-29T21:13:59;102418.59;;;18.49;100.00
18813;BME280;9534;51.140;6.296;2023-07-29T21:18:02;102429.06;;;18.47;100.00
18813;BME280;9534;51.140;6.296;2023-07-29T21:22:06;102427.53;;;18.44;100.00
18813;BME280;9534;51.140;6.296;2023-07-29T21:26:09;102420.72;;;18.34;100.00
18813;BME280;9534;51.140;6.296;2023-07-29T21:30:15;102390.53;;;18.06;100.00